Time;durP1;ratioP1;P1;durP2;ratioP2;P2;SDS_P1;SDS_P2;PMS_P1;PMS_P2;Temp;Humidity;BMP_temperature;BMP_pressure;BME280_temperature;BME280_humidity;BME280_pressure;Samples;Min_cycle;Max_cycle;Signal;HPM_P1;HPM_P2
2021/06/29 00:46:51;;;;;;;9.97;9.07;;;22.30;98.30;;;;;;4841094;24;20460;-85
2021/06/29 00:56:40;;;;;;;10.70;9.70;;;21.90;98.30;;;;;;4794146;24;20486;-85
2021/06/29 01:36:42;;;;;;;10.70;9.80;;;22.10;98.30;;;;;;4980478;23;20443;-85
2021/06/29 01:49:30;;;;;;;9.87;9.07;;;21.90;98.30;;;;;;4973102;23;20450;-87
2021/06/29 01:51:33;;;;;;;10.70;9.70;;;21.70;98.30;;;;;;5048692;23;20453;-86
2021/06/29 01:53:41;;;;;;;11.67;10.47;;;21.70;98.30;;;;;;5049658;23;20537;-86
2021/06/29 01:55:50;;;;;;;11.70;10.60;;;21.60;98.30;;;;;;5049772;23;21036;-87
2021/06/29 01:58:00;;;;;;;10.10;9.10;;;21.50;98.30;;;;;;5147236;23;20469;-88
2021/06/29 02:00:08;;;;;;;10.50;9.50;;;21.70;98.30;;;;;;5147232;23;20430;-87
2021/06/29 02:02:14;;;;;;;11.17;10.17;;;21.60;98.30;;;;;;5145936;23;20441;-86
2021/06/29 02:04:24;;;;;;;11.70;10.27;;;21.60;98.30;;;;;;5141386;23;20468;-87
2021/06/29 02:06:30;;;;;;;10.17;9.17;;;21.50;98.30;;;;;;5174743;22;20418;-85
2021/06/29 02:08:35;;;;;;;12.03;11.03;;;21.50;98.30;;;;;;5211883;22;20751;-86
2021/06/29 02:10:42;;;;;;;10.87;9.97;;;21.40;98.30;;;;;;5206831;22;20411;-85
2021/06/29 02:12:46;;;;;;;12.93;9.80;;;21.40;98.30;;;;;;5205792;22;20438;-86
2021/06/29 02:14:50;;;;;;;11.00;9.90;;;21.40;98.30;;;;;;5216336;22;21064;-85
2021/06/29 02:16:55;;;;;;;11.37;10.37;;;21.40;98.30;;;;;;5210062;22;20422;-86
2021/06/29 02:19:01;;;;;;;12.43;10.40;;;21.50;98.30;;;;;;5218763;22;20452;-86
2021/06/29 02:21:07;;;;;;;12.53;10.70;;;21.60;98.30;;;;;;5220084;22;20458;-86
2021/06/29 02:23:12;;;;;;;11.30;10.23;;;21.70;98.30;;;;;;5220225;22;20414;-86
2021/06/29 02:25:16;;;;;;;11.37;10.20;;;21.80;98.30;;;;;;5206027;22;20419;-86
2021/06/29 02:27:20;;;;;;;13.43;9.97;;;21.90;98.30;;;;;;5207330;22;20796;-86
2021/06/29 02:29:26;;;;;;;11.37;10.30;;;21.90;98.30;;;;;;5206212;22;20423;-86
2021/06/29 02:31:30;;;;;;;9.87;9.07;;;21.90;98.30;;;;;;5204968;22;20431;-85
2021/06/29 02:33:35;;;;;;;11.63;10.43;;;21.80;98.30;;;;;;5205197;22;20472;-86
2021/06/29 02:35:39;;;;;;;13.33;12.10;;;21.80;98.30;;;;;;5205300;22;20411;-85
2021/06/29 02:37:46;;;;;;;11.90;10.80;;;21.70;98.30;;;;;;5204228;22;20437;-85
2021/06/29 02:39:50;;;;;;;11.57;10.37;;;21.70;98.30;;;;;;5205268;22;20399;-86
2021/06/29 02:41:53;;;;;;;14.03;11.10;;;21.50;98.30;;;;;;5204989;22;20455;-85
2021/06/29 02:43:56;;;;;;;11.83;10.73;;;21.60;98.30;;;;;;5210334;22;20411;-86
2021/06/29 02:46:00;;;;;;;13.17;11.77;;;21.60;98.30;;;;;;5210653;22;20464;-86
2021/06/29 02:48:03;;;;;;;11.80;10.70;;;21.50;98.30;;;;;;5217597;22;20449;-86
2021/06/29 02:50:11;;;;;;;14.50;10.53;;;21.40;98.30;;;;;;5218418;22;20415;-86
2021/06/29 02:52:20;;;;;;;11.47;10.47;;;21.40;98.30;;;;;;5218835;22;20434;-86
2021/06/29 02:54:32;;;;;;;12.23;11.03;;;21.50;98.30;;;;;;5218034;22;20419;-85
2021/06/29 02:56:39;;;;;;;11.50;10.40;;;21.50;98.30;;;;;;5216625;22;20458;-85
2021/06/29 02:58:49;;;;;;;11.20;10.20;;;21.50;98.30;;;;;;5211672;22;20441;-86
2021/06/29 03:00:52;;;;;;;11.83;10.70;;;21.60;98.30;;;;;;5207921;22;20422;-86
2021/06/29 03:03:00;;;;;;;11.90;10.60;;;21.70;98.30;;;;;;5209975;22;20730;-85
2021/06/29 03:05:05;;;;;;;11.60;10.40;;;21.70;98.30;;;;;;5205008;22;20461;-86
2021/06/29 03:07:10;;;;;;;12.60;10.20;;;21.70;98.30;;;;;;5209341;22;20450;-86
2021/06/29 03:09:15;;;;;;;12.57;10.80;;;21.70;98.30;;;;;;5210133;22;20414;-86
2021/06/29 03:11:20;;;;;;;11.50;9.73;;;21.80;98.30;;;;;;5210890;22;20443;-86
2021/06/29 03:13:28;;;;;;;12.00;10.90;;;21.80;98.30;;;;;;5209885;22;20445;-87
2021/06/29 03:15:37;;;;;;;10.93;10.00;;;21.80;98.30;;;;;;5210725;22;20409;-86
2021/06/29 03:17:40;;;;;;;12.40;11.10;;;21.70;98.30;;;;;;5201139;22;20970;-86
2021/06/29 03:19:43;;;;;;;11.10;10.07;;;21.80;98.30;;;;;;5207273;22;20446;-86
2021/06/29 03:21:48;;;;;;;12.60;10.40;;;21.80;98.30;;;;;;5208031;22;20478;-86
2021/06/29 03:23:52;;;;;;;13.50;12.10;;;21.80;98.30;;;;;;5208259;22;20438;-85
2021/06/29 03:25:55;;;;;;;12.73;11.47;;;21.60;98.30;;;;;;5207564;22;20450;-85
2021/06/29 03:28:00;;;;;;;12.67;11.57;;;21.60;98.30;;;;;;5207500;22;20511;-85
2021/06/29 03:33:27;;;;;;;12.00;10.67;;;21.70;98.30;;;;;;5174055;22;20423;-86
2021/06/29 03:35:32;;;;;;;16.53;14.90;;;21.60;98.30;;;;;;5209114;22;20888;-86
2021/06/29 03:37:37;;;;;;;12.57;11.43;;;21.60;98.30;;;;;;5208075;22;20990;-85
2021/06/29 03:39:40;;;;;;;11.70;10.70;;;21.60;98.30;;;;;;5207510;22;20494;-86
2021/06/29 03:41:43;;;;;;;13.70;12.40;;;21.50;98.30;;;;;;5207948;22;20508;-86
2021/06/29 03:43:48;;;;;;;12.43;11.37;;;21.30;98.30;;;;;;5207472;22;20419;-86
2021/06/29 03:45:52;;;;;;;11.53;10.43;;;21.10;98.30;;;;;;5204118;22;20411;-85
2021/06/29 03:47:57;;;;;;;14.03;12.73;;;21.10;98.30;;;;;;5203583;22;20414;-85
2021/06/29 03:50:01;;;;;;;12.63;11.53;;;21.00;98.30;;;;;;5203125;22;20920;-85
2021/06/29 03:52:05;;;;;;;12.43;11.07;;;21.20;98.30;;;;;;5204075;22;20452;-85
2021/06/29 03:54:09;;;;;;;12.57;11.47;;;21.20;98.30;;;;;;5202261;22;20504;-86
2021/06/29 03:56:29;;;;;;;12.57;11.47;;;21.20;98.30;;;;;;5202947;22;20445;-86
2021/06/29 03:58:45;;;;;;;13.40;12.00;;;21.20;98.30;;;;;;5204523;22;20721;-86
2021/06/29 04:00:50;;;;;;;11.70;10.70;;;21.10;98.30;;;;;;5203729;22;20403;-85
2021/06/29 04:02:56;;;;;;;13.20;11.90;;;21.10;98.30;;;;;;5203456;22;20433;-85
2021/06/29 04:05:01;;;;;;;13.17;11.90;;;21.20;98.30;;;;;;5204844;22;20422;-85
2021/06/29 04:07:07;;;;;;;13.33;12.13;;;21.00;98.30;;;;;;5211864;22;20497;-85
2021/06/29 04:09:10;;;;;;;12.23;11.10;;;20.90;98.30;;;;;;5211427;22;20423;-85
2021/06/29 04:11:16;;;;;;;12.43;11.23;;;20.90;98.30;;;;;;5204757;22;20446;-86
2021/06/29 04:13:33;;;;;;;12.80;11.70;;;21.00;98.30;;;;;;5200330;22;20445;-86
2021/06/29 04:15:36;;;;;;;14.13;11.23;;;20.90;98.30;;;;;;5211253;22;20434;-86
2021/06/29 04:17:43;;;;;;;15.30;12.63;;;20.90;98.30;;;;;;5213022;22;20443;-86
2021/06/29 04:19:46;;;;;;;13.53;12.33;;;21.00;98.30;;;;;;5210350;22;20481;-86
2021/06/29 04:21:49;;;;;;;12.83;11.70;;;21.00;98.30;;;;;;5204333;22;20461;-86
2021/06/29 04:23:53;;;;;;;13.37;12.17;;;20.90;98.30;;;;;;5211535;22;20486;-86
2021/06/29 04:25:56;;;;;;;13.57;12.37;;;20.90;98.30;;;;;;5212675;22;20427;-86
2021/06/29 04:27:59;;;;;;;12.87;11.77;;;20.80;98.30;;;;;;5212043;22;20427;-86
2021/06/29 04:30:15;;;;;;;13.33;12.17;;;20.80;98.30;;;;;;5199933;22;20512;-86
2021/06/29 04:32:22;;;;;;;13.40;12.00;;;20.80;98.30;;;;;;5199355;22;20447;-86
2021/06/29 04:34:27;;;;;;;13.50;12.30;;;20.90;98.30;;;;;;5198599;22;20428;-87
2021/06/29 04:36:33;;;;;;;14.20;12.80;;;20.90;98.30;;;;;;5199573;22;20453;-86
2021/06/29 04:38:39;;;;;;;13.33;12.13;;;20.90;98.30;;;;;;5200537;22;20415;-86
2021/06/29 04:40:43;;;;;;;14.30;13.00;;;20.80;98.30;;;;;;5200201;22;20442;-85
2021/06/29 04:42:47;;;;;;;13.90;12.47;;;20.80;98.30;;;;;;5200167;22;20430;-85
2021/06/29 04:44:52;;;;;;;14.33;13.03;;;20.90;98.30;;;;;;5200200;22;21015;-85
2021/06/29 04:46:56;;;;;;;15.80;13.30;;;20.90;98.30;;;;;;5199835;22;20431;-85
2021/06/29 04:49:04;;;;;;;16.30;14.70;;;20.90;98.30;;;;;;5205674;22;20419;-85
2021/06/29 04:51:10;;;;;;;15.50;14.03;;;20.90;98.30;;;;;;5203224;22;20484;-85
2021/06/29 04:53:24;;;;;;;19.17;14.20;;;20.90;98.30;;;;;;5196582;22;20530;-86
2021/06/29 04:55:33;;;;;;;14.67;13.27;;;21.10;98.30;;;;;;5205650;22;20442;-86
2021/06/29 04:57:42;;;;;;;14.10;12.70;;;21.20;98.30;;;;;;5206178;22;20914;-85
2021/06/29 04:59:48;;;;;;;14.80;13.50;;;21.20;98.30;;;;;;5203857;22;20414;-86
2021/06/29 05:01:56;;;;;;;69.80;57.50;;;21.30;98.30;;;;;;5204284;22;20439;-86
2021/06/29 05:03:59;;;;;;;15.73;14.23;;;21.30;98.30;;;;;;5203229;22;20416;-86
2021/06/29 05:06:11;;;;;;;21.07;19.00;;;21.30;98.30;;;;;;5201605;22;20430;-86
2021/06/29 05:08:34;;;;;;;15.10;13.30;;;21.30;98.30;;;;;;5205120;22;20438;-87
2021/06/29 05:10:38;;;;;;;16.27;14.83;;;21.40;98.30;;;;;;5207363;22;20453;-86
2021/06/29 05:12:48;;;;;;;15.70;14.20;;;21.40;98.30;;;;;;5206205;22;20443;-86
2021/06/29 05:15:00;;;;;;;16.17;14.70;;;21.50;98.30;;;;;;5206783;22;20964;-86
2021/06/29 05:17:07;;;;;;;17.27;15.57;;;21.60;98.30;;;;;;5206460;22;20520;-87
2021/06/29 05:19:38;;;;;;;19.17;17.23;;;21.70;98.30;;;;;;5194977;22;20461;-86
2021/06/29 05:21:53;;;;;;;15.87;14.27;;;21.70;98.30;;;;;;5205238;22;20446;-86
2021/06/29 05:24:15;;;;;;;15.93;14.37;;;21.70;98.30;;;;;;5206345;22;20553;-86
2021/06/29 05:26:21;;;;;;;16.07;14.40;;;21.70;98.30;;;;;;5206208;22;20415;-85
2021/06/29 05:28:27;;;;;;;17.83;15.23;;;21.80;98.30;;;;;;5198532;22;20415;-87
2021/06/29 05:30:31;;;;;;;17.40;15.73;;;21.70;98.30;;;;;;5206128;22;20742;-87
2021/06/29 05:32:45;;;;;;;17.33;15.63;;;21.60;98.30;;;;;;5205589;22;20939;-86
2021/06/29 05:34:51;;;;;;;17.33;15.60;;;21.70;98.30;;;;;;5203626;22;20422;-85
2021/06/29 05:36:54;;;;;;;17.07;14.83;;;21.70;98.30;;;;;;5200540;22;20437;-85
2021/06/29 05:38:59;;;;;;;17.67;15.87;;;21.70;98.30;;;;;;5199691;22;20445;-85
2021/06/29 05:41:04;;;;;;;16.90;15.20;;;21.90;98.30;;;;;;5199579;22;20427;-85
2021/06/29 05:43:08;;;;;;;18.40;16.57;;;21.90;98.30;;;;;;5192179;22;20955;-85
2021/06/29 05:45:14;;;;;;;16.73;15.13;;;21.90;98.30;;;;;;5192645;22;20458;-85
2021/06/29 05:47:23;;;;;;;16.60;15.00;;;22.10;98.30;;;;;;5200614;22;20409;-85
2021/06/29 05:49:37;;;;;;;17.23;15.63;;;22.10;98.30;;;;;;5200630;22;20410;-85
2021/06/29 05:51:45;;;;;;;17.03;15.23;;;22.30;98.30;;;;;;5200605;22;20442;-86
2021/06/29 05:53:48;;;;;;;16.90;15.30;;;22.20;98.30;;;;;;5201002;22;20442;-85
2021/06/29 05:55:53;;;;;;;18.20;16.40;;;22.20;98.30;;;;;;5200819;22;20568;-85
2021/06/29 05:57:56;;;;;;;16.53;14.93;;;22.20;98.30;;;;;;5201650;22;20449;-85
2021/06/29 06:00:05;;;;;;;17.40;15.60;;;22.20;98.30;;;;;;5201325;22;20426;-84
2021/06/29 06:02:13;;;;;;;16.57;14.97;;;22.20;98.30;;;;;;5204672;22;20467;-85
2021/06/29 06:04:16;;;;;;;17.27;15.57;;;22.30;98.30;;;;;;5202241;22;20496;-84
2021/06/29 06:06:22;;;;;;;16.93;15.13;;;22.40;98.30;;;;;;5202253;22;20946;-84
2021/06/29 06:08:26;;;;;;;17.53;15.83;;;22.30;98.30;;;;;;5202734;22;20433;-84
2021/06/29 06:10:29;;;;;;;17.83;16.00;;;22.40;98.30;;;;;;5219053;22;20426;-83
2021/06/29 06:12:35;;;;;;;16.13;14.63;;;22.50;98.30;;;;;;5220850;22;20435;-83
2021/06/29 06:14:38;;;;;;;19.43;17.60;;;22.60;98.30;;;;;;5220869;22;20419;-83
2021/06/29 06:16:44;;;;;;;15.70;14.20;;;22.60;98.30;;;;;;5212261;22;20465;-83
2021/06/29 06:18:48;;;;;;;15.67;14.20;;;22.60;98.30;;;;;;5218234;22;20423;-83
2021/06/29 06:20:52;;;;;;;14.80;13.40;;;22.60;98.30;;;;;;5219672;22;20478;-84
2021/06/29 06:22:56;;;;;;;15.80;14.40;;;22.60;98.30;;;;;;5213348;22;20430;-85
2021/06/29 06:24:59;;;;;;;14.63;13.33;;;22.60;98.30;;;;;;5200499;22;20426;-84
2021/06/29 06:27:03;;;;;;;15.70;13.50;;;22.70;98.30;;;;;;5191572;22;20423;-84
2021/06/29 06:29:09;;;;;;;12.40;11.30;;;22.70;98.30;;;;;;5190500;22;20509;-85
2021/06/29 06:31:12;;;;;;;11.87;10.77;;;22.80;98.30;;;;;;5199877;22;20482;-85
2021/06/29 06:33:22;;;;;;;11.70;10.80;;;22.90;98.30;;;;;;5200099;22;20758;-84
2021/06/29 06:35:43;;;;;;;11.20;10.27;;;22.90;98.30;;;;;;5200033;22;20884;-84
2021/06/29 06:37:47;;;;;;;10.77;9.87;;;23.00;98.30;;;;;;5199738;22;20477;-84
2021/06/29 06:39:50;;;;;;;11.00;9.90;;;23.00;98.30;;;;;;5199272;22;20429;-84
2021/06/29 06:41:53;;;;;;;10.77;9.57;;;23.00;98.30;;;;;;5199693;22;21319;-84
2021/06/29 06:43:59;;;;;;;9.97;9.17;;;23.00;98.30;;;;;;5200210;22;20522;-85
2021/06/29 06:46:03;;;;;;;12.03;10.20;;;23.10;98.30;;;;;;5199623;22;20411;-84
2021/06/29 06:48:08;;;;;;;11.13;10.13;;;23.10;98.30;;;;;;5190862;22;20423;-84
2021/06/29 06:50:11;;;;;;;11.20;10.10;;;23.10;98.30;;;;;;5198435;22;20507;-84
2021/06/29 06:52:14;;;;;;;9.80;8.90;;;23.10;98.30;;;;;;5198390;22;20504;-83
2021/06/29 06:54:19;;;;;;;10.40;9.53;;;23.20;98.30;;;;;;5198459;22;20497;-84
2021/06/29 06:56:30;;;;;;;10.57;9.53;;;23.30;98.30;;;;;;5198353;22;20407;-84
2021/06/29 06:58:33;;;;;;;12.90;11.80;;;23.40;98.30;;;;;;5189564;22;20410;-84
2021/06/29 07:00:38;;;;;;;11.77;10.67;;;23.40;98.30;;;;;;5189526;22;20427;-84
2021/06/29 07:02:42;;;;;;;12.00;10.80;;;23.30;98.30;;;;;;5198362;22;20444;-83
2021/06/29 07:04:45;;;;;;;12.47;11.27;;;23.40;98.30;;;;;;5199149;22;20962;-84
2021/06/29 07:06:48;;;;;;;11.97;10.97;;;23.60;98.30;;;;;;5200174;22;20425;-85
2021/06/29 07:08:52;;;;;;;12.93;11.87;;;23.50;98.30;;;;;;5199525;22;20436;-84
2021/06/29 07:10:56;;;;;;;13.17;11.93;;;23.50;98.30;;;;;;5199609;22;20433;-84
2021/06/29 07:12:59;;;;;;;12.20;11.10;;;23.60;98.30;;;;;;5199641;22;20426;-85
2021/06/29 07:15:06;;;;;;;11.27;10.37;;;23.70;98.30;;;;;;5190631;22;20678;-84
2021/06/29 07:17:09;;;;;;;13.17;11.97;;;23.80;98.30;;;;;;5199465;22;20530;-84
2021/06/29 07:19:14;;;;;;;11.57;10.57;;;23.90;98.30;;;;;;5199269;22;20434;-85
2021/06/29 07:21:25;;;;;;;16.10;14.00;;;24.00;98.30;;;;;;5200008;22;20465;-85
2021/06/29 07:23:28;;;;;;;13.43;12.23;;;24.00;98.30;;;;;;5191352;22;20411;-84
2021/06/29 07:25:36;;;;;;;17.70;16.17;;;24.20;98.30;;;;;;5191118;22;20411;-84
2021/06/29 07:27:39;;;;;;;20.67;18.77;;;24.30;98.30;;;;;;5199764;22;20858;-84
2021/06/29 07:29:44;;;;;;;13.40;12.20;;;24.50;98.30;;;;;;5190685;22;20427;-85
2021/06/29 07:31:48;;;;;;;14.83;12.83;;;24.70;98.30;;;;;;5190676;22;20443;-84
2021/06/29 07:33:54;;;;;;;13.90;12.70;;;24.60;98.30;;;;;;5191054;22;20477;-85
2021/06/29 07:35:59;;;;;;;13.90;12.70;;;24.70;98.30;;;;;;5190648;22;20418;-85
2021/06/29 07:38:03;;;;;;;13.10;12.00;;;24.60;98.30;;;;;;5190534;22;20484;-84
2021/06/29 07:40:10;;;;;;;14.50;13.10;;;24.60;98.30;;;;;;5199257;22;20429;-84
2021/06/29 07:42:13;;;;;;;15.37;14.07;;;24.50;98.30;;;;;;5199343;22;20441;-85
2021/06/29 07:44:17;;;;;;;14.63;13.13;;;24.50;98.30;;;;;;5199352;22;20445;-84
2021/06/29 07:46:20;;;;;;;13.77;12.57;;;24.40;98.30;;;;;;5191150;22;20426;-85
2021/06/29 07:48:23;;;;;;;13.20;12.10;;;24.50;98.30;;;;;;5199572;22;20423;-84
2021/06/29 07:50:26;;;;;;;14.37;13.07;;;24.60;98.30;;;;;;5199364;22;20896;-84
2021/06/29 07:52:31;;;;;;;14.83;13.50;;;24.80;98.30;;;;;;5199278;22;20447;-84
2021/06/29 07:54:34;;;;;;;15.20;13.90;;;24.80;98.30;;;;;;5199547;22;20441;-84
2021/06/29 07:56:38;;;;;;;15.80;14.30;;;24.70;98.30;;;;;;5198862;22;20752;-84
2021/06/29 07:58:41;;;;;;;17.00;15.57;;;24.70;98.30;;;;;;5190844;22;20423;-85
2021/06/29 08:00:46;;;;;;;14.60;13.30;;;24.80;98.30;;;;;;5191107;22;20491;-85
2021/06/29 08:02:49;;;;;;;14.47;13.20;;;24.90;98.30;;;;;;5190851;22;20809;-85
2021/06/29 08:05:09;;;;;;;15.63;14.20;;;24.90;98.30;;;;;;5200695;22;20442;-83
2021/06/29 08:07:14;;;;;;;16.40;14.97;;;25.00;98.30;;;;;;5199721;22;20415;-85
2021/06/29 08:09:18;;;;;;;16.67;15.17;;;25.00;98.30;;;;;;5198893;22;20476;-84
2021/06/29 08:11:39;;;;;;;15.33;13.93;;;25.20;98.30;;;;;;5199322;22;20826;-84
2021/06/29 08:13:44;;;;;;;16.43;14.93;;;25.20;98.30;;;;;;5198763;22;20518;-85
2021/06/29 08:15:49;;;;;;;15.23;13.93;;;25.30;98.30;;;;;;5199311;22;20415;-84
2021/06/29 08:17:52;;;;;;;16.07;14.70;;;25.50;98.30;;;;;;5191097;22;20483;-84
2021/06/29 08:19:56;;;;;;;19.10;17.40;;;25.70;98.30;;;;;;5199202;22;20426;-85
2021/06/29 08:21:59;;;;;;;22.27;20.20;;;25.60;98.30;;;;;;5190716;22;20478;-85
2021/06/29 08:24:09;;;;;;;29.43;26.50;;;25.60;98.30;;;;;;5199147;22;20395;-84
2021/06/29 08:26:14;;;;;;;38.00;33.60;;;25.70;98.30;;;;;;5199255;22;20509;-85
2021/06/29 08:28:20;;;;;;;50.10;44.90;;;25.90;98.30;;;;;;5198686;22;20419;-84
2021/06/29 08:30:23;;;;;;;52.00;43.30;;;26.00;98.30;;;;;;5199407;22;20423;-84
2021/06/29 08:32:26;;;;;;;38.23;34.27;;;26.10;98.30;;;;;;5199589;22;20947;-85
2021/06/29 08:34:32;;;;;;;32.03;28.83;;;26.40;98.30;;;;;;5191259;22;20783;-85
2021/06/29 08:36:41;;;;;;;39.47;35.53;;;26.40;98.30;;;;;;5193701;22;20419;-83
2021/06/29 08:38:44;;;;;;;37.30;33.57;;;26.10;98.30;;;;;;5202601;22;20429;-86
2021/06/29 08:40:48;;;;;;;36.03;32.50;;;26.00;98.30;;;;;;5199801;22;20806;-84
2021/06/29 08:42:52;;;;;;;31.20;28.20;;;26.00;98.30;;;;;;5199544;22;20866;-85
2021/06/29 08:44:56;;;;;;;29.43;26.43;;;25.80;98.30;;;;;;5199345;22;20442;-84
2021/06/29 08:46:59;;;;;;;26.63;24.23;;;25.70;98.30;;;;;;5198933;22;20767;-85
2021/06/29 08:49:04;;;;;;;30.57;27.97;;;25.60;98.30;;;;;;5190986;22;20423;-84
2021/06/29 08:51:22;;;;;;;34.10;31.10;;;25.50;98.30;;;;;;5191938;22;20516;-85
2021/06/29 08:53:28;;;;;;;37.50;33.77;;;25.40;98.30;;;;;;5193446;22;20430;-84
2021/06/29 08:55:34;;;;;;;29.17;26.63;;;25.30;98.30;;;;;;5199091;22;20986;-85
2021/06/29 08:57:39;;;;;;;18.40;16.80;;;25.30;98.30;;;;;;5191298;22;20447;-85
2021/06/29 08:59:50;;;;;;;19.17;17.37;;;25.30;98.30;;;;;;5190839;22;20431;-85
2021/06/29 09:01:53;;;;;;;20.80;19.10;;;25.30;98.30;;;;;;5199439;22;20906;-85
2021/06/29 09:03:59;;;;;;;18.87;17.07;;;25.40;98.30;;;;;;5191002;22;20445;-85
2021/06/29 09:06:02;;;;;;;18.23;16.70;;;25.30;98.30;;;;;;5199284;22;20434;-84
2021/06/29 09:08:10;;;;;;;15.93;14.33;;;25.20;98.30;;;;;;5190829;22;21083;-85
2021/06/29 09:10:13;;;;;;;15.43;14.00;;;25.20;98.30;;;;;;5191295;22;20892;-85
2021/06/29 09:12:43;;;;;;;14.70;13.20;;;25.20;98.30;;;;;;5190493;22;20526;-84
2021/06/29 09:14:48;;;;;;;13.53;12.20;;;25.20;98.30;;;;;;5199512;22;20415;-84
2021/06/29 09:16:50;;;;;;;14.17;12.83;;;25.20;98.30;;;;;;5190378;22;20437;-84
2021/06/29 09:18:54;;;;;;;12.93;11.80;;;25.20;98.30;;;;;;5190504;22;20466;-85
2021/06/29 09:21:01;;;;;;;13.97;12.70;;;25.20;98.30;;;;;;5199627;22;20900;-85
2021/06/29 09:23:13;;;;;;;14.50;13.10;;;25.00;98.30;;;;;;5199617;22;20473;-84
2021/06/29 09:25:25;;;;;;;13.33;12.13;;;24.90;98.30;;;;;;5199403;22;20434;-84
2021/06/29 09:27:50;;;;;;;13.33;12.17;;;24.80;98.30;;;;;;5190945;22;20490;-84
2021/06/29 09:30:00;;;;;;;12.83;11.80;;;24.70;98.30;;;;;;5188209;22;20751;-84
2021/06/29 09:32:18;;;;;;;11.93;10.73;;;24.80;98.30;;;;;;5198919;22;20495;-85
2021/06/29 09:34:21;;;;;;;12.33;11.33;;;24.90;98.30;;;;;;5199197;22;20411;-84
2021/06/29 09:36:26;;;;;;;10.30;9.50;;;25.00;98.30;;;;;;5198804;22;20421;-84
2021/06/29 09:38:31;;;;;;;10.37;9.47;;;25.20;98.30;;;;;;5191501;22;20422;-84
2021/06/29 09:40:35;;;;;;;10.13;9.33;;;25.20;98.30;;;;;;5191997;22;20431;-85
2021/06/29 09:42:41;;;;;;;11.27;10.17;;;25.30;98.30;;;;;;5191807;22;20446;-84
2021/06/29 09:44:44;;;;;;;10.60;9.60;;;25.40;98.30;;;;;;5200594;22;20419;-85
2021/06/29 09:46:49;;;;;;;10.20;9.30;;;25.50;98.30;;;;;;5192221;22;20449;-84
2021/06/29 09:48:55;;;;;;;9.90;9.20;;;25.70;98.30;;;;;;5191703;22;20427;-84
2021/06/29 09:51:20;;;;;;;11.20;10.30;;;25.90;98.30;;;;;;5200855;22;20931;-84
2021/06/29 09:53:26;;;;;;;12.60;11.70;;;26.00;98.30;;;;;;5192219;22;20418;-85
2021/06/29 09:55:42;;;;;;;13.67;12.57;;;25.90;98.30;;;;;;5200501;22;20448;-85
2021/06/29 09:57:45;;;;;;;14.13;12.73;;;25.80;98.30;;;;;;5192125;22;20505;-84
2021/06/29 09:59:48;;;;;;;13.63;12.30;;;25.70;98.30;;;;;;5191668;22;20427;-85
2021/06/29 10:02:04;;;;;;;12.67;11.57;;;25.80;98.30;;;;;;5200542;22;20443;-84
2021/06/29 10:04:10;;;;;;;13.60;12.30;;;25.90;98.30;;;;;;5192198;22;20498;-84
2021/06/29 10:06:16;;;;;;;11.57;10.50;;;25.90;98.30;;;;;;5200302;22;20768;-84
2021/06/29 10:08:26;;;;;;;11.00;10.10;;;26.00;98.30;;;;;;5200181;22;20427;-84
2021/06/29 10:10:32;;;;;;;11.53;10.40;;;26.20;98.30;;;;;;5200441;22;20422;-84
2021/06/29 10:12:35;;;;;;;12.13;11.13;;;26.10;98.30;;;;;;5191888;22;20549;-84
2021/06/29 10:14:38;;;;;;;12.83;11.67;;;26.00;98.30;;;;;;5200208;22;20427;-84
2021/06/29 10:16:45;;;;;;;12.00;11.00;;;26.00;98.30;;;;;;5200070;22;20934;-84
2021/06/29 10:19:02;;;;;;;12.00;11.00;;;26.00;98.30;;;;;;5200598;22;20525;-85
2021/06/29 10:21:16;;;;;;;12.33;11.30;;;25.80;98.30;;;;;;5192837;22;20415;-84
2021/06/29 10:23:20;;;;;;;12.27;11.27;;;25.70;98.30;;;;;;5200474;22;20741;-84
2021/06/29 10:25:29;;;;;;;11.80;10.80;;;25.50;98.30;;;;;;5201146;22;20449;-85
2021/06/29 10:27:33;;;;;;;11.83;10.73;;;25.30;98.30;;;;;;5197207;22;20407;-84
2021/06/29 10:29:37;;;;;;;12.07;11.03;;;25.30;98.30;;;;;;5211054;22;20427;-84
2021/06/29 10:31:44;;;;;;;14.63;11.57;;;25.30;98.30;;;;;;5220626;22;20442;-84
2021/06/29 10:33:53;;;;;;;11.70;10.80;;;25.20;98.30;;;;;;5220713;22;20418;-84
2021/06/29 10:36:02;;;;;;;12.43;11.33;;;25.20;98.30;;;;;;5220726;22;20451;-85
2021/06/29 10:38:08;;;;;;;13.60;12.50;;;25.30;98.30;;;;;;5217370;22;20414;-84
2021/06/29 10:40:17;;;;;;;13.23;12.13;;;25.30;98.30;;;;;;5217970;22;20419;-84
2021/06/29 10:42:20;;;;;;;13.90;12.70;;;25.30;98.30;;;;;;5217967;22;20510;-84
2021/06/29 10:44:26;;;;;;;14.80;13.30;;;25.10;98.30;;;;;;5201382;22;20422;-85
2021/06/29 10:46:43;;;;;;;14.80;13.60;;;25.00;98.30;;;;;;5192912;22;20509;-84
2021/06/29 10:48:49;;;;;;;12.00;10.90;;;24.90;98.30;;;;;;5192564;22;20411;-83
2021/06/29 10:50:55;;;;;;;13.07;11.97;;;24.90;98.30;;;;;;5200612;22;20399;-85
2021/06/29 10:52:58;;;;;;;13.50;12.00;;;24.90;98.30;;;;;;5200753;22;20415;-85
2021/06/29 10:55:04;;;;;;;11.90;10.90;;;25.00;98.30;;;;;;5200573;22;20422;-84
2021/06/29 10:57:11;;;;;;;12.97;11.83;;;25.10;98.30;;;;;;5200523;22;20451;-84
2021/06/29 10:59:19;;;;;;;11.37;10.07;;;25.10;98.30;;;;;;5191406;22;20427;-84
2021/06/29 11:01:29;;;;;;;11.73;10.70;;;24.90;98.30;;;;;;5200082;22;20903;-84
2021/06/29 11:03:38;;;;;;;11.30;10.40;;;24.80;98.30;;;;;;5192225;22;20474;-84
2021/06/29 11:05:45;;;;;;;11.00;10.10;;;24.80;98.30;;;;;;5200411;22;20509;-85
2021/06/29 11:07:49;;;;;;;10.50;9.43;;;24.80;98.30;;;;;;5191434;22;20411;-84
2021/06/29 11:09:53;;;;;;;11.30;10.20;;;24.90;98.30;;;;;;5191340;22;20427;-84
2021/06/29 11:12:20;;;;;;;11.00;10.10;;;24.90;98.30;;;;;;5191644;22;20442;-85
2021/06/29 11:14:28;;;;;;;13.90;10.53;;;24.90;98.30;;;;;;5191914;22;20437;-85
2021/06/29 11:16:56;;;;;;;12.00;10.77;;;25.00;98.30;;;;;;5200137;22;20413;-84
2021/06/29 11:18:59;;;;;;;11.20;10.37;;;25.00;98.30;;;;;;5200002;22;20403;-84
2021/06/29 11:21:06;;;;;;;11.83;10.83;;;25.00;98.30;;;;;;5191818;22;20435;-85
2021/06/29 11:23:16;;;;;;;11.40;10.40;;;25.00;98.30;;;;;;5199801;22;20755;-85
2021/06/29 11:25:35;;;;;;;13.03;11.83;;;25.00;98.30;;;;;;5191954;22;20411;-85
2021/06/29 11:28:07;;;;;;;10.70;9.80;;;24.90;98.30;;;;;;5191005;22;20411;-85
2021/06/29 11:30:12;;;;;;;11.37;10.47;;;25.00;98.30;;;;;;5192146;22;20714;-85
2021/06/29 11:32:36;;;;;;;11.87;10.93;;;25.00;98.30;;;;;;5199982;22;20926;-84
